sensor_id;sensor_type;location;lat;lon;timestamp;temperature;humidity
43524;DHT22;29120;52.006;6.020;2023-01-15T00:01:37;7.80;99.90
43524;DHT22;29120;52.006;6.020;2023-01-15T00:04:03;7.80;99.90
43524;DHT22;29120;52.006;6.020;2023-01-15T00:06:29;7.80;99.90
43524;DHT22;29120;52.006;6.020;2023-01-15T00:08:55;7.80;99.90
43524;DHT22;29120;52.006;6.020;2023-01-15T00:11:21;7.80;99.90
43524;DHT22;29120;52.006;6.020;2023-01-15T00:13:47;7.80;99.90
43524;DHT22;29120;52.006;6.020;2023-01-15T00:16:14;7.80;99.90
43524;DHT22;29120;52.006;6.020;2023-01-15T00:18:40;7.80;99.90
43524;DHT22;29120;52.006;6.020;2023-01-15T00:21:06;7.90;99.90
43524;DHT22;29120;52.006;6.020;2023-01-15T00:23:32;7.80;99.90
43524;DHT22;29120;52.006;6.020;2023-01-15T00:26:17;7.80;99.90
43524;DHT22;29120;52.006;6.020;2023-01-15T00:29:01;7.90;99.90
43524;DHT22;29120;52.006;6.020;2023-01-15T00:31:27;7.80;99.90
43524;DHT22;29120;52.006;6.020;2023-01-15T00:33:53;7.80;99.90
43524;DHT22;29120;52.006;6.020;2023-01-15T00:36:18;7.80;99.90
43524;DHT22;29120;52.006;6.020;2023-01-15T00:38:44;7.80;99.90
43524;DHT22;29120;52.006;6.020;2023-01-15T00:41:09;7.80;99.90
43524;DHT22;29120;52.006;6.020;2023-01-15T00:43:35;7.80;99.90
43524;DHT22;29120;52.006;6.020;2023-01-15T00:46:00;7.70;99.90
43524;DHT22;29120;52.006;6.020;2023-01-15T00:48:26;7.70;99.90
43524;DHT22;29120;52.006;6.020;2023-01-15T00:50:52;7.70;99.90
43524;DHT22;29120;52.006;6.020;2023-01-15T00:53:17;7.70;99.90
43524;DHT22;29120;52.006;6.020;2023-01-15T00:55:43;7.70;99.90
43524;DHT22;29120;52.006;6.020;2023-01-15T00:58:08;7.70;99.90
43524;DHT22;29120;52.006;6.020;2023-01-15T01:00:35;7.70;99.90
43524;DHT22;29120;52.006;6.020;2023-01-15T01:03:01;7.70;99.90
43524;DHT22;29120;52.006;6.020;2023-01-15T01:05:26;7.70;99.90
43524;DHT22;29120;52.006;6.020;2023-01-15T01:07:52;7.70;99.90
43524;DHT22;29120;52.006;6.020;2023-01-15T01:10:17;7.70;99.90
43524;DHT22;29120;52.006;6.020;2023-01-15T01:12:42;7.70;99.90
43524;DHT22;29120;52.006;6.020;2023-01-15T01:15:08;7.70;99.90
43524;DHT22;29120;52.006;6.020;2023-01-15T01:17:35;7.60;99.90
43524;DHT22;29120;52.006;6.020;2023-01-15T01:20:02;7.60;99.90
43524;DHT22;29120;52.006;6.020;2023-01-15T01:22:27;7.60;99.90
43524;DHT22;29120;52.006;6.020;2023-01-15T01:24:53;7.60;99.90
43524;DHT22;29120;52.006;6.020;2023-01-15T01:27:18;7.60;99.90
43524;DHT22;29120;52.006;6.020;2023-01-15T01:29:44;7.60;99.90
43524;DHT22;29120;52.006;6.020;2023-01-15T01:32:09;7.60;99.90
43524;DHT22;29120;52.006;6.020;2023-01-15T01:34:35;7.60;99.90
43524;DHT22;29120;52.006;6.020;2023-01-15T01:37:00;7.60;99.90
43524;DHT22;29120;52.006;6.020;2023-01-15T01:39:26;7.60;99.90
43524;DHT22;29120;52.006;6.020;2023-01-15T01:41:51;7.50;99.90
43524;DHT22;29120;52.006;6.020;2023-01-15T01:47:00;7.50;99.90
43524;DHT22;29120;52.006;6.020;2023-01-15T01:49:27;7.50;99.90
43524;DHT22;29120;52.006;6.020;2023-01-15T01:51:58;7.50;99.90
43524;DHT22;29120;52.006;6.020;2023-01-15T01:54:25;7.40;99.90
43524;DHT22;29120;52.006;6.020;2023-01-15T01:56:53;7.40;99.90
43524;DHT22;29120;52.006;6.020;2023-01-15T01:59:19;7.40;99.90
43524;DHT22;29120;52.006;6.020;2023-01-15T02:01:45;7.40;99.90
43524;DHT22;29120;52.006;6.020;2023-01-15T02:04:11;7.40;99.90
43524;DHT22;29120;52.006;6.020;2023-01-15T02:06:37;7.40;99.90
43524;DHT22;29120;52.006;6.020;2023-01-15T02:09:03;7.40;99.90
43524;DHT22;29120;52.006;6.020;2023-01-15T02:11:29;7.30;99.90
43524;DHT22;29120;52.006;6.020;2023-01-15T02:16:54;7.30;99.90
43524;DHT22;29120;52.006;6.020;2023-01-15T02:19:36;7.30;99.90
43524;DHT22;29120;52.006;6.020;2023-01-15T02:22:18;7.30;99.90
43524;DHT22;29120;52.006;6.020;2023-01-15T02:27:17;7.30;99.90
43524;DHT22;29120;52.006;6.020;2023-01-15T02:30:05;7.30;99.90
43524;DHT22;29120;52.006;6.020;2023-01-15T02:33:06;7.20;99.90
43524;DHT22;29120;52.006;6.020;2023-01-15T02:35:28;7.20;99.90
43524;DHT22;29120;52.006;6.020;2023-01-15T02:37:57;7.20;99.90
43524;DHT22;29120;52.006;6.020;2023-01-15T02:40:23;7.20;99.90
43524;DHT22;29120;52.006;6.020;2023-01-15T02:42:50;7.20;99.90
43524;DHT22;29120;52.006;6.020;2023-01-15T02:45:17;7.20;99.90
43524;DHT22;29120;52.006;6.020;2023-01-15T02:47:48;7.10;99.90
43524;DHT22;29120;52.006;6.020;2023-01-15T02:50:16;7.10;99.90
43524;DHT22;29120;52.006;6.020;2023-01-15T02:52:44;7.00;99.90
43524;DHT22;29120;52.006;6.020;2023-01-15T02:55:13;7.00;99.90
43524;DHT22;29120;52.006;6.020;2023-01-15T02:57:40;7.00;99.90
43524;DHT22;29120;52.006;6.020;2023-01-15T03:00:08;7.00;99.90
43524;DHT22;29120;52.006;6.020;2023-01-15T03:02:35;6.90;99.90
43524;DHT22;29120;52.006;6.020;2023-01-15T03:05:38;6.90;99.90
43524;DHT22;29120;52.006;6.020;2023-01-15T03:07:57;6.90;99.90
43524;DHT22;29120;52.006;6.020;2023-01-15T03:10:28;6.90;99.90
43524;DHT22;29120;52.006;6.020;2023-01-15T03:12:59;6.90;99.90
43524;DHT22;29120;52.006;6.020;2023-01-15T03:15:50;6.90;99.90
43524;DHT22;29120;52.006;6.020;2023-01-15T03:18:35;6.90;99.90
43524;DHT22;29120;52.006;6.020;2023-01-15T03:21:02;6.90;99.90
43524;DHT22;29120;52.006;6.020;2023-01-15T03:23:29;6.90;99.90
43524;DHT22;29120;52.006;6.020;2023-01-15T03:25:55;6.90;99.90
43524;DHT22;29120;52.006;6.020;2023-01-15T03:28:22;6.90;99.90
43524;DHT22;29120;52.006;6.020;2023-01-15T03:30:50;6.90;99.90
43524;DHT22;29120;52.006;6.020;2023-01-15T03:33:16;6.90;99.90
43524;DHT22;29120;52.006;6.020;2023-01-15T03:38:13;7.00;99.90
43524;DHT22;29120;52.006;6.020;2023-01-15T03:40:44;7.00;99.90
43524;DHT22;29120;52.006;6.020;2023-01-15T03:43:11;7.00;99.90
43524;DHT22;29120;52.006;6.020;2023-01-15T03:45:58;6.90;99.90
43524;DHT22;29120;52.006;6.020;2023-01-15T03:50:54;6.90;99.90
43524;DHT22;29120;52.006;6.020;2023-01-15T03:53:26;7.00;99.90
43524;DHT22;29120;52.006;6.020;2023-01-15T03:55:58;7.00;99.90
43524;DHT22;29120;52.006;6.020;2023-01-15T03:58:27;7.00;99.90
43524;DHT22;29120;52.006;6.020;2023-01-15T04:00:54;7.00;99.90
43524;DHT22;29120;52.006;6.020;2023-01-15T04:03:21;7.00;99.90
43524;DHT22;29120;52.006;6.020;2023-01-15T04:05:47;7.00;99.90
43524;DHT22;29120;52.006;6.020;2023-01-15T04:08:13;7.00;99.90
43524;DHT22;29120;52.006;6.020;2023-01-15T04:13:17;6.90;99.90
43524;DHT22;29120;52.006;6.020;2023-01-15T04:15:43;6.90;99.90
43524;DHT22;29120;52.006;6.020;2023-01-15T04:18:08;6.90;99.90
43524;DHT22;29120;52.006;6.020;2023-01-15T04:20:33;6.90;99.90
43524;DHT22;29120;52.006;6.020;2023-01-15T04:22:59;6.90;99.90
43524;DHT22;29120;52.006;6.020;2023-01-15T04:25:24;6.90;99.90
43524;DHT22;29120;52.006;6.020;2023-01-15T04:27:52;6.80;99.90
43524;DHT22;29120;52.006;6.020;2023-01-15T04:30:17;6.80;99.90
43524;DHT22;29120;52.006;6.020;2023-01-15T04:32:43;6.70;99.90
43524;DHT22;29120;52.006;6.020;2023-01-15T04:35:09;6.70;99.90
43524;DHT22;29120;52.006;6.020;2023-01-15T04:37:34;6.70;99.90
43524;DHT22;29120;52.006;6.020;2023-01-15T04:40:00;6.70;99.90
43524;DHT22;29120;52.006;6.020;2023-01-15T04:42:25;6.70;99.90
43524;DHT22;29120;52.006;6.020;2023-01-15T04:45:09;6.70;99.90
43524;DHT22;29120;52.006;6.020;2023-01-15T04:47:35;6.70;99.90
43524;DHT22;29120;52.006;6.020;2023-01-15T04:50:00;6.70;99.90
43524;DHT22;29120;52.006;6.020;2023-01-15T04:52:25;6.70;99.90
43524;DHT22;29120;52.006;6.020;2023-01-15T04:54:53;6.70;99.90
43524;DHT22;29120;52.006;6.020;2023-01-15T04:57:19;6.70;99.90
43524;DHT22;29120;52.006;6.020;2023-01-15T04:59:44;6.60;99.90
43524;DHT22;29120;52.006;6.020;2023-01-15T05:02:10;6.60;99.90
43524;DHT22;29120;52.006;6.020;2023-01-15T05:04:35;6.60;99.90
43524;DHT22;29120;52.006;6.020;2023-01-15T05:07:01;6.50;99.90
43524;DHT22;29120;52.006;6.020;2023-01-15T05:09:27;6.60;99.90
43524;DHT22;29120;52.006;6.020;2023-01-15T05:11:52;6.60;99.90
43524;DHT22;29120;52.006;6.020;2023-01-15T05:14:18;6.70;99.90
43524;DHT22;29120;52.006;6.020;2023-01-15T05:16:43;6.70;99.90
43524;DHT22;29120;52.006;6.020;2023-01-15T05:19:09;6.80;99.90
43524;DHT22;29120;52.006;6.020;2023-01-15T05:21:35;6.80;99.90
43524;DHT22;29120;52.006;6.020;2023-01-15T05:24:02;6.80;99.90
43524;DHT22;29120;52.006;6.020;2023-01-15T05:26:29;6.80;99.90
43524;DHT22;29120;52.006;6.020;2023-01-15T05:28:55;6.80;99.90
43524;DHT22;29120;52.006;6.020;2023-01-15T05:31:22;6.80;99.90
43524;DHT22;29120;52.006;6.020;2023-01-15T05:33:47;6.80;99.90
43524;DHT22;29120;52.006;6.020;2023-01-15T05:36:15;6.80;99.90
43524;DHT22;29120;52.006;6.020;2023-01-15T05:38:41;6.70;99.90
43524;DHT22;29120;52.006;6.020;2023-01-15T05:41:09;6.60;99.90
43524;DHT22;29120;52.006;6.020;2023-01-15T05:43:54;6.50;99.90
43524;DHT22;29120;52.006;6.020;2023-01-15T05:46:20;6.40;99.90
43524;DHT22;29120;52.006;6.020;2023-01-15T05:48:45;6.40;99.90
43524;DHT22;29120;52.006;6.020;2023-01-15T05:51:11;6.40;99.90
43524;DHT22;29120;52.006;6.020;2023-01-15T05:53:36;6.40;99.90
43524;DHT22;29120;52.006;6.020;2023-01-15T05:56:05;6.40;99.90
43524;DHT22;29120;52.006;6.020;2023-01-15T05:58:31;6.50;99.90
43524;DHT22;29120;52.006;6.020;2023-01-15T06:00:56;6.50;99.90
43524;DHT22;29120;52.006;6.020;2023-01-15T06:03:22;6.40;99.90
43524;DHT22;29120;52.006;6.020;2023-01-15T06:05:54;6.40;99.90
43524;DHT22;29120;52.006;6.020;2023-01-15T06:08:20;6.40;99.90
43524;DHT22;29120;52.006;6.020;2023-01-15T06:10:46;6.40;99.90
43524;DHT22;29120;52.006;6.020;2023-01-15T06:13:12;6.40;99.90
43524;DHT22;29120;52.006;6.020;2023-01-15T06:15:38;6.30;99.90
43524;DHT22;29120;52.006;6.020;2023-01-15T06:18:04;6.30;99.90
43524;DHT22;29120;52.006;6.020;2023-01-15T06:20:29;6.40;99.90
43524;DHT22;29120;52.006;6.020;2023-01-15T06:22:55;6.40;99.90
43524;DHT22;29120;52.006;6.020;2023-01-15T06:25:20;6.40;99.90
43524;DHT22;29120;52.006;6.020;2023-01-15T06:27:46;6.40;99.90
43524;DHT22;29120;52.006;6.020;2023-01-15T06:30:13;6.40;99.90
43524;DHT22;29120;52.006;6.020;2023-01-15T06:32:39;6.30;99.90
43524;DHT22;29120;52.006;6.020;2023-01-15T06:35:04;6.30;99.90
43524;DHT22;29120;52.006;6.020;2023-01-15T06:37:30;6.30;99.90
43524;DHT22;29120;52.006;6.020;2023-01-15T06:39:55;6.30;99.90
43524;DHT22;29120;52.006;6.020;2023-01-15T06:42:21;6.20;99.90
43524;DHT22;29120;52.006;6.020;2023-01-15T06:45:05;6.20;99.90
43524;DHT22;29120;52.006;6.020;2023-01-15T06:47:49;6.20;99.90
43524;DHT22;29120;52.006;6.020;2023-01-15T06:50:14;6.10;99.90
43524;DHT22;29120;52.006;6.020;2023-01-15T06:52:40;6.10;99.90
43524;DHT22;29120;52.006;6.020;2023-01-15T06:55:06;6.10;99.90
43524;DHT22;29120;52.006;6.020;2023-01-15T06:57:31;6.10;99.90
43524;DHT22;29120;52.006;6.020;2023-01-15T06:59:57;6.10;99.90
43524;DHT22;29120;52.006;6.020;2023-01-15T07:02:22;6.20;99.90
43524;DHT22;29120;52.006;6.020;2023-01-15T07:04:48;6.30;99.90
43524;DHT22;29120;52.006;6.020;2023-01-15T07:07:14;6.30;99.90
43524;DHT22;29120;52.006;6.020;2023-01-15T07:09:40;6.40;99.90
43524;DHT22;29120;52.006;6.020;2023-01-15T07:12:06;6.40;99.90
43524;DHT22;29120;52.006;6.020;2023-01-15T07:14:31;6.40;99.90
43524;DHT22;29120;52.006;6.020;2023-01-15T07:16:57;6.40;99.90
43524;DHT22;29120;52.006;6.020;2023-01-15T07:19:23;6.40;99.90
43524;DHT22;29120;52.006;6.020;2023-01-15T07:21:49;6.40;99.90
43524;DHT22;29120;52.006;6.020;2023-01-15T07:24:15;6.30;99.90
43524;DHT22;29120;52.006;6.020;2023-01-15T07:26:41;6.30;99.90
43524;DHT22;29120;52.006;6.020;2023-01-15T07:29:06;6.30;99.90
43524;DHT22;29120;52.006;6.020;2023-01-15T07:31:32;6.20;99.90
43524;DHT22;29120;52.006;6.020;2023-01-15T07:33:57;6.00;99.90
43524;DHT22;29120;52.006;6.020;2023-01-15T07:36:23;6.00;99.90
43524;DHT22;29120;52.006;6.020;2023-01-15T07:38:49;5.90;99.90
43524;DHT22;29120;52.006;6.020;2023-01-15T07:41:15;5.90;99.90
43524;DHT22;29120;52.006;6.020;2023-01-15T07:43:59;5.90;99.90
43524;DHT22;29120;52.006;6.020;2023-01-15T07:46:43;5.80;99.90
43524;DHT22;29120;52.006;6.020;2023-01-15T07:49:27;5.80;99.90
43524;DHT22;29120;52.006;6.020;2023-01-15T07:52:25;5.80;99.90
43524;DHT22;29120;52.006;6.020;2023-01-15T07:54:51;5.80;99.90
43524;DHT22;29120;52.006;6.020;2023-01-15T07:57:20;5.80;99.90
43524;DHT22;29120;52.006;6.020;2023-01-15T07:59:45;5.80;99.90
43524;DHT22;29120;52.006;6.020;2023-01-15T08:02:11;5.80;99.90
43524;DHT22;29120;52.006;6.020;2023-01-15T08:04:37;5.80;99.90
43524;DHT22;29120;52.006;6.020;2023-01-15T08:07:03;5.90;99.90
43524;DHT22;29120;52.006;6.020;2023-01-15T08:09:28;5.90;99.90
43524;DHT22;29120;52.006;6.020;2023-01-15T08:11:54;5.90;99.90
43524;DHT22;29120;52.006;6.020;2023-01-15T08:14:38;6.00;99.90
43524;DHT22;29120;52.006;6.020;2023-01-15T08:17:22;5.90;99.90
43524;DHT22;29120;52.006;6.020;2023-01-15T08:19:48;5.90;99.90
43524;DHT22;29120;52.006;6.020;2023-01-15T08:22:13;5.90;99.90
43524;DHT22;29120;52.006;6.020;2023-01-15T08:24:39;5.90;99.90
43524;DHT22;29120;52.006;6.020;2023-01-15T08:27:04;5.90;99.90
43524;DHT22;29120;52.006;6.020;2023-01-15T08:29:30;5.90;99.90
43524;DHT22;29120;52.006;6.020;2023-01-15T08:31:55;6.00;99.90
43524;DHT22;29120;52.006;6.020;2023-01-15T08:34:21;6.00;99.90
43524;DHT22;29120;52.006;6.020;2023-01-15T08:36:46;6.00;99.90
43524;DHT22;29120;52.006;6.020;2023-01-15T08:39:14;6.00;99.90
43524;DHT22;29120;52.006;6.020;2023-01-15T08:41:39;6.00;99.90
43524;DHT22;29120;52.006;6.020;2023-01-15T08:44:04;6.10;99.90
43524;DHT22;29120;52.006;6.020;2023-01-15T08:46:30;6.10;99.90
43524;DHT22;29120;52.006;6.020;2023-01-15T08:48:56;6.10;99.90
43524;DHT22;29120;52.006;6.020;2023-01-15T08:51:21;6.20;99.90
43524;DHT22;29120;52.006;6.020;2023-01-15T08:53:47;6.20;99.90
43524;DHT22;29120;52.006;6.020;2023-01-15T08:56:16;6.30;99.90
43524;DHT22;29120;52.006;6.020;2023-01-15T08:58:41;6.30;99.90
43524;DHT22;29120;52.006;6.020;2023-01-15T09:01:08;6.50;99.90
43524;DHT22;29120;52.006;6.020;2023-01-15T09:03:36;6.50;99.90
43524;DHT22;29120;52.006;6.020;2023-01-15T09:06:02;6.50;99.90
43524;DHT22;29120;52.006;6.020;2023-01-15T09:08:28;6.50;99.90
43524;DHT22;29120;52.006;6.020;2023-01-15T09:10:57;6.50;99.90
43524;DHT22;29120;52.006;6.020;2023-01-15T09:13:23;6.60;99.90
43524;DHT22;29120;52.006;6.020;2023-01-15T09:15:49;6.60;99.90
43524;DHT22;29120;52.006;6.020;2023-01-15T09:18:14;6.70;99.90
43524;DHT22;29120;52.006;6.020;2023-01-15T09:20:46;6.70;99.90
43524;DHT22;29120;52.006;6.020;2023-01-15T09:23:12;6.70;99.90
43524;DHT22;29120;52.006;6.020;2023-01-15T09:25:37;6.70;99.90
43524;DHT22;29120;52.006;6.020;2023-01-15T09:28:03;6.70;99.90
43524;DHT22;29120;52.006;6.020;2023-01-15T09:30:28;6.80;99.90
43524;DHT22;29120;52.006;6.020;2023-01-15T09:32:54;6.80;99.90
43524;DHT22;29120;52.006;6.020;2023-01-15T09:35:19;6.80;99.90
43524;DHT22;29120;52.006;6.020;2023-01-15T09:37:53;6.80;99.90
43524;DHT22;29120;52.006;6.020;2023-01-15T09:40:21;6.80;99.90
43524;DHT22;29120;52.006;6.020;2023-01-15T09:42:51;6.90;99.90
43524;DHT22;29120;52.006;6.020;2023-01-15T09:45:24;7.00;99.90
43524;DHT22;29120;52.006;6.020;2023-01-15T09:55:32;7.40;99.90
43524;DHT22;29120;52.006;6.020;2023-01-15T09:57:58;7.40;99.90
43524;DHT22;29120;52.006;6.020;2023-01-15T10:00:25;7.50;99.90
43524;DHT22;29120;52.006;6.020;2023-01-15T10:02:52;8.10;99.90
43524;DHT22;29120;52.006;6.020;2023-01-15T10:07:57;9.90;99.90
43524;DHT22;29120;52.006;6.020;2023-01-15T10:10:26;10.60;99.90
43524;DHT22;29120;52.006;6.020;2023-01-15T10:12:56;10.30;98.70
43524;DHT22;29120;52.006;6.020;2023-01-15T10:15:41;9.80;99.20
43524;DHT22;29120;52.006;6.020;2023-01-15T10:18:12;9.50;99.90
43524;DHT22;29120;52.006;6.020;2023-01-15T10:23:34;9.20;99.90
43524;DHT22;29120;52.006;6.020;2023-01-15T10:28:59;9.20;99.90
43524;DHT22;29120;52.006;6.020;2023-01-15T10:31:32;9.70;99.90
43524;DHT22;29120;52.006;6.020;2023-01-15T10:34:03;10.00;99.90
43524;DHT22;29120;52.006;6.020;2023-01-15T10:36:38;10.50;99.90
43524;DHT22;29120;52.006;6.020;2023-01-15T10:39:50;11.10;98.90
43524;DHT22;29120;52.006;6.020;2023-01-15T10:42:10;11.40;96.60
43524;DHT22;29120;52.006;6.020;2023-01-15T10:44:41;11.60;95.50
43524;DHT22;29120;52.006;6.020;2023-01-15T10:47:12;11.90;94.40
43524;DHT22;29120;52.006;6.020;2023-01-15T10:49:39;12.00;92.90
43524;DHT22;29120;52.006;6.020;2023-01-15T10:52:27;12.40;93.30
43524;DHT22;29120;52.006;6.020;2023-01-15T10:54:53;11.90;92.50
43524;DHT22;29120;52.006;6.020;2023-01-15T10:59:57;11.10;93.20
43524;DHT22;29120;52.006;6.020;2023-01-15T11:04:49;10.70;94.00
43524;DHT22;29120;52.006;6.020;2023-01-15T11:07:14;10.60;94.10
43524;DHT22;29120;52.006;6.020;2023-01-15T11:09:40;10.40;93.80
43524;DHT22;29120;52.006;6.020;2023-01-15T11:12:23;10.00;93.60
43524;DHT22;29120;52.006;6.020;2023-01-15T11:14:49;9.60;93.10
43524;DHT22;29120;52.006;6.020;2023-01-15T11:20:24;9.10;94.40
43524;DHT22;29120;52.006;6.020;2023-01-15T11:22:51;9.10;94.90
43524;DHT22;29120;52.006;6.020;2023-01-15T11:25:26;9.60;95.20
43524;DHT22;29120;52.006;6.020;2023-01-15T11:27:52;10.30;94.60
43524;DHT22;29120;52.006;6.020;2023-01-15T11:30:25;10.50;93.40
43524;DHT22;29120;52.006;6.020;2023-01-15T11:32:55;10.30;93.50
43524;DHT22;29120;52.006;6.020;2023-01-15T11:35:21;9.80;93.90
43524;DHT22;29120;52.006;6.020;2023-01-15T11:37:47;9.90;94.70
43524;DHT22;29120;52.006;6.020;2023-01-15T11:40:17;10.50;94.10
43524;DHT22;29120;52.006;6.020;2023-01-15T11:42:46;10.70;94.10
43524;DHT22;29120;52.006;6.020;2023-01-15T11:45:30;10.70;94.00
43524;DHT22;29120;52.006;6.020;2023-01-15T11:48:15;10.60;93.80
43524;DHT22;29120;52.006;6.020;2023-01-15T11:51:10;11.00;94.50
43524;DHT22;29120;52.006;6.020;2023-01-15T11:53:40;11.10;93.50
43524;DHT22;29120;52.006;6.020;2023-01-15T11:56:08;10.70;93.70
43524;DHT22;29120;52.006;6.020;2023-01-15T11:58:38;10.10;93.70
43524;DHT22;29120;52.006;6.020;2023-01-15T12:01:05;9.60;95.00
43524;DHT22;29120;52.006;6.020;2023-01-15T12:03:31;9.20;95.40
43524;DHT22;29120;52.006;6.020;2023-01-15T12:06:04;8.90;96.30
43524;DHT22;29120;52.006;6.020;2023-01-15T12:19:10;8.00;99.90
43524;DHT22;29120;52.006;6.020;2023-01-15T12:24:33;8.10;99.90
43524;DHT22;29120;52.006;6.020;2023-01-15T12:29:25;8.40;99.90
43524;DHT22;29120;52.006;6.020;2023-01-15T12:31:59;8.60;99.90
43524;DHT22;29120;52.006;6.020;2023-01-15T12:37:05;8.80;99.90
43524;DHT22;29120;52.006;6.020;2023-01-15T12:39:35;9.30;99.90
43524;DHT22;29120;52.006;6.020;2023-01-15T12:42:06;9.60;99.90
43524;DHT22;29120;52.006;6.020;2023-01-15T12:44:53;9.50;99.90
43524;DHT22;29120;52.006;6.020;2023-01-15T12:52:36;8.20;99.90
43524;DHT22;29120;52.006;6.020;2023-01-15T12:57:39;7.80;99.90
43524;DHT22;29120;52.006;6.020;2023-01-15T13:00:14;7.70;99.90
43524;DHT22;29120;52.006;6.020;2023-01-15T13:03:27;7.70;99.90
43524;DHT22;29120;52.006;6.020;2023-01-15T13:05:31;7.60;99.90
43524;DHT22;29120;52.006;6.020;2023-01-15T13:10:29;7.60;99.90
43524;DHT22;29120;52.006;6.020;2023-01-15T13:20:49;8.00;99.90
43524;DHT22;29120;52.006;6.020;2023-01-15T13:23:18;8.10;99.90
43524;DHT22;29120;52.006;6.020;2023-01-15T13:35:49;8.10;99.90
43524;DHT22;29120;52.006;6.020;2023-01-15T13:38:17;8.10;99.90
43524;DHT22;29120;52.006;6.020;2023-01-15T13:40:43;8.00;99.90
43524;DHT22;29120;52.006;6.020;2023-01-15T13:45:53;7.80;99.90
43524;DHT22;29120;52.006;6.020;2023-01-15T13:51:03;7.80;99.90
43524;DHT22;29120;52.006;6.020;2023-01-15T13:55:56;7.80;99.90
43524;DHT22;29120;52.006;6.020;2023-01-15T13:58:27;7.70;99.90
43524;DHT22;29120;52.006;6.020;2023-01-15T14:03:38;7.50;99.90
43524;DHT22;29120;52.006;6.020;2023-01-15T14:06:04;7.50;99.90
43524;DHT22;29120;52.006;6.020;2023-01-15T14:08:37;7.50;99.90
43524;DHT22;29120;52.006;6.020;2023-01-15T14:11:03;7.40;99.90
43524;DHT22;29120;52.006;6.020;2023-01-15T14:13:44;7.40;99.90
43524;DHT22;29120;52.006;6.020;2023-01-15T14:21:17;7.20;99.90
43524;DHT22;29120;52.006;6.020;2023-01-15T14:26:31;7.10;99.90
43524;DHT22;29120;52.006;6.020;2023-01-15T14:31:39;7.10;99.90
43524;DHT22;29120;52.006;6.020;2023-01-15T14:34:09;7.10;99.90
43524;DHT22;29120;52.006;6.020;2023-01-15T14:36:38;7.10;99.90
43524;DHT22;29120;52.006;6.020;2023-01-15T14:39:05;7.10;99.90
43524;DHT22;29120;52.006;6.020;2023-01-15T14:41:42;7.10;99.90
43524;DHT22;29120;52.006;6.020;2023-01-15T14:44:27;7.10;99.90
43524;DHT22;29120;52.006;6.020;2023-01-15T14:46:58;7.10;99.90
43524;DHT22;29120;52.006;6.020;2023-01-15T14:49:28;7.20;99.90
43524;DHT22;29120;52.006;6.020;2023-01-15T14:51:54;7.20;99.90
43524;DHT22;29120;52.006;6.020;2023-01-15T14:54:20;7.20;99.90
43524;DHT22;29120;52.006;6.020;2023-01-15T14:56:48;7.20;99.90
43524;DHT22;29120;52.006;6.020;2023-01-15T14:59:15;7.20;99.90
43524;DHT22;29120;52.006;6.020;2023-01-15T15:01:43;7.10;99.90
43524;DHT22;29120;52.006;6.020;2023-01-15T15:06:57;7.20;99.90
43524;DHT22;29120;52.006;6.020;2023-01-15T15:11:50;7.20;99.90
43524;DHT22;29120;52.006;6.020;2023-01-15T15:14:34;7.20;99.90
43524;DHT22;29120;52.006;6.020;2023-01-15T15:17:02;7.20;99.90
43524;DHT22;29120;52.006;6.020;2023-01-15T15:19:39;7.20;99.90
43524;DHT22;29120;52.006;6.020;2023-01-15T15:22:09;7.20;99.90
43524;DHT22;29120;52.006;6.020;2023-01-15T15:24:40;7.10;99.90
43524;DHT22;29120;52.006;6.020;2023-01-15T15:27:17;7.00;99.90
43524;DHT22;29120;52.006;6.020;2023-01-15T15:29:44;7.00;99.90
43524;DHT22;29120;52.006;6.020;2023-01-15T15:32:16;7.00;99.90
43524;DHT22;29120;52.006;6.020;2023-01-15T15:34:43;6.90;99.90
43524;DHT22;29120;52.006;6.020;2023-01-15T15:37:12;6.80;99.90
43524;DHT22;29120;52.006;6.020;2023-01-15T15:45:11;6.60;99.90
43524;DHT22;29120;52.006;6.020;2023-01-15T15:47:58;6.50;99.90
43524;DHT22;29120;52.006;6.020;2023-01-15T15:50:42;6.50;99.90
43524;DHT22;29120;52.006;6.020;2023-01-15T15:53:17;6.40;99.90
43524;DHT22;29120;52.006;6.020;2023-01-15T15:55:43;6.40;99.90
43524;DHT22;29120;52.006;6.020;2023-01-15T15:58:30;6.50;99.90
43524;DHT22;29120;52.006;6.020;2023-01-15T16:00:56;6.50;99.90
43524;DHT22;29120;52.006;6.020;2023-01-15T16:03:26;6.50;99.90
43524;DHT22;29120;52.006;6.020;2023-01-15T16:06:05;6.50;99.90
43524;DHT22;29120;52.006;6.020;2023-01-15T16:08:31;6.50;99.90
43524;DHT22;29120;52.006;6.020;2023-01-15T16:10:58;6.50;99.90
43524;DHT22;29120;52.006;6.020;2023-01-15T16:13:26;6.50;99.90
43524;DHT22;29120;52.006;6.020;2023-01-15T16:15:52;6.40;99.90
43524;DHT22;29120;52.006;6.020;2023-01-15T16:18:41;6.40;99.90
43524;DHT22;29120;52.006;6.020;2023-01-15T16:21:09;6.40;99.90
43524;DHT22;29120;52.006;6.020;2023-01-15T16:23:35;6.50;99.90
43524;DHT22;29120;52.006;6.020;2023-01-15T16:26:14;6.60;99.90
43524;DHT22;29120;52.006;6.020;2023-01-15T16:28:43;6.70;99.90
43524;DHT22;29120;52.006;6.020;2023-01-15T16:31:11;6.70;99.90
43524;DHT22;29120;52.006;6.020;2023-01-15T16:33:38;6.80;99.90
43524;DHT22;29120;52.006;6.020;2023-01-15T16:36:04;6.80;99.90
43524;DHT22;29120;52.006;6.020;2023-01-15T16:38:32;6.80;99.90
43524;DHT22;29120;52.006;6.020;2023-01-15T16:40:59;6.80;99.90
43524;DHT22;29120;52.006;6.020;2023-01-15T16:43:25;6.80;99.90
43524;DHT22;29120;52.006;6.020;2023-01-15T16:50:47;6.90;99.90
43524;DHT22;29120;52.006;6.020;2023-01-15T16:53:36;6.90;99.90
43524;DHT22;29120;52.006;6.020;2023-01-15T16:56:03;6.90;99.90
43524;DHT22;29120;52.006;6.020;2023-01-15T16:58:38;7.00;99.90
43524;DHT22;29120;52.006;6.020;2023-01-15T17:03:49;7.00;99.90
43524;DHT22;29120;52.006;6.020;2023-01-15T17:06:16;7.00;99.90
43524;DHT22;29120;52.006;6.020;2023-01-15T17:08:46;6.90;99.90
43524;DHT22;29120;52.006;6.020;2023-01-15T17:11:23;6.90;99.90
43524;DHT22;29120;52.006;6.020;2023-01-15T17:13:49;6.90;99.90
43524;DHT22;29120;52.006;6.020;2023-01-15T17:16:15;6.90;99.90
43524;DHT22;29120;52.006;6.020;2023-01-15T17:18:41;6.90;99.90
43524;DHT22;29120;52.006;6.020;2023-01-15T17:21:17;6.90;99.90
43524;DHT22;29120;52.006;6.020;2023-01-15T17:23:45;6.90;99.90
43524;DHT22;29120;52.006;6.020;2023-01-15T17:26:13;6.80;99.90
43524;DHT22;29120;52.006;6.020;2023-01-15T17:28:40;6.80;99.90
43524;DHT22;29120;52.006;6.020;2023-01-15T17:31:07;6.70;99.90
43524;DHT22;29120;52.006;6.020;2023-01-15T17:33:36;6.60;99.90
43524;DHT22;29120;52.006;6.020;2023-01-15T17:36:02;6.60;99.90
43524;DHT22;29120;52.006;6.020;2023-01-15T17:38:27;6.70;99.90
43524;DHT22;29120;52.006;6.020;2023-01-15T17:40:52;6.60;99.90
43524;DHT22;29120;52.006;6.020;2023-01-15T17:43:21;6.60;99.90
43524;DHT22;29120;52.006;6.020;2023-01-15T17:45:47;6.60;99.90
43524;DHT22;29120;52.006;6.020;2023-01-15T17:48:13;6.60;99.90
43524;DHT22;29120;52.006;6.020;2023-01-15T17:50:38;6.60;99.90
43524;DHT22;29120;52.006;6.020;2023-01-15T17:53:05;6.60;99.90
43524;DHT22;29120;52.006;6.020;2023-01-15T17:55:30;6.60;99.90
43524;DHT22;29120;52.006;6.020;2023-01-15T17:58:15;6.60;99.90
43524;DHT22;29120;52.006;6.020;2023-01-15T18:00:59;6.50;99.90
43524;DHT22;29120;52.006;6.020;2023-01-15T18:03:45;6.40;99.90